createdAt,value
2019-02-04T00:00:24.914Z,20.57
2019-02-04T00:04:50.615Z,20.68
2019-02-04T00:09:15.406Z,21.23
2019-02-04T00:13:39.374Z,20.68
2019-02-04T00:18:03.458Z,24.07
2019-02-04T00:22:27.272Z,25.37
2019-02-04T00:26:51.885Z,23.80
2019-02-04T00:31:15.903Z,21.23
2019-02-04T00:35:39.915Z,21.82
2019-02-04T00:40:04.768Z,22.20
2019-02-04T00:44:28.657Z,21.52
2019-02-04T00:48:52.403Z,20.23
2019-02-04T00:53:16.131Z,25.72
2019-02-04T00:57:39.779Z,24.57
2019-02-04T01:02:04.049Z,25.12
2019-02-04T01:06:28.098Z,27.07
2019-02-04T01:10:51.876Z,26.15
2019-02-04T01:15:15.564Z,26.75
2019-02-04T01:19:39.391Z,22.00
2019-02-04T01:24:03.323Z,26.48
2019-02-04T01:28:27.147Z,28.30
2019-02-04T01:32:51.102Z,27.48
2019-02-04T01:37:14.948Z,28.10
2019-02-04T01:41:38.922Z,24.32
2019-02-04T01:46:02.880Z,26.25
2019-02-04T01:50:26.730Z,23.07
2019-02-04T01:54:50.816Z,25.02
2019-02-04T01:59:15.786Z,29.05
2019-02-04T02:03:39.836Z,24.20
2019-02-04T02:08:03.475Z,24.60
2019-02-04T02:12:27.478Z,25.88
2019-02-04T02:16:51.329Z,31.52
2019-02-04T02:21:15.506Z,29.32
2019-02-04T02:25:39.316Z,31.75
2019-02-04T02:30:04.941Z,32.13
2019-02-04T02:34:29.224Z,32.40
2019-02-04T02:38:53.236Z,32.20
2019-02-04T02:43:17.032Z,35.13
2019-02-04T02:47:41.164Z,30.25
2019-02-04T02:52:05.290Z,36.93
2019-02-04T02:56:30.410Z,33.83
2019-02-04T03:00:54.352Z,33.08
2019-02-04T03:05:18.244Z,35.85
2019-02-04T03:09:42.026Z,34.53
2019-02-04T03:14:05.772Z,39.33
2019-02-04T03:18:29.865Z,37.30
2019-02-04T03:22:53.645Z,40.70
2019-02-04T03:27:17.782Z,41.05
2019-02-04T03:31:45.686Z,44.90
2019-02-04T03:36:07.253Z,40.00
2019-02-04T03:40:32.359Z,39.27
2019-02-04T03:44:56.216Z,38.02
2019-02-04T03:49:19.851Z,39.78
2019-02-04T03:53:43.851Z,38.23
2019-02-04T03:58:07.858Z,33.67
2019-02-04T04:02:31.960Z,31.68
2019-02-04T04:06:55.839Z,39.40
2019-02-04T04:11:19.675Z,35.98
2019-02-04T04:15:43.692Z,39.70
2019-02-04T04:20:10.442Z,46.20
2019-02-04T04:24:34.568Z,53.92
2019-02-04T04:28:58.753Z,55.43
2019-02-04T04:33:23.083Z,53.08
2019-02-04T04:37:47.162Z,56.68
2019-02-04T04:42:11.097Z,53.65
2019-02-04T04:46:34.949Z,56.53
2019-02-04T04:50:58.825Z,57.10
2019-02-04T04:55:27.238Z,56.18
2019-02-04T04:59:51.008Z,63.33
2019-02-04T05:04:15.315Z,63.08
2019-02-04T05:08:39.593Z,60.03
2019-02-04T05:13:03.548Z,60.90
2019-02-04T05:17:27.131Z,62.03
2019-02-04T05:21:51.224Z,63.00
2019-02-04T05:26:14.895Z,64.87
2019-02-04T05:30:38.941Z,65.25
2019-02-04T05:35:02.564Z,60.40
2019-02-04T05:39:26.225Z,75.25
2019-02-04T05:43:50.300Z,70.87
2019-02-04T05:48:14.285Z,64.25
2019-02-04T05:52:37.788Z,69.50
2019-02-04T05:57:01.578Z,64.62
2019-02-04T06:01:25.107Z,65.17
2019-02-04T06:05:49.041Z,65.87
2019-02-04T06:10:12.836Z,73.57
2019-02-04T06:14:36.790Z,66.17
2019-02-04T06:19:01.284Z,70.45
2019-02-04T06:23:25.789Z,64.05
2019-02-04T06:27:49.590Z,59.03
2019-02-04T06:32:13.435Z,59.90
2019-02-04T06:36:37.963Z,64.32
2019-02-04T06:41:01.543Z,55.58
2019-02-04T06:45:25.941Z,43.50
2019-02-04T06:49:49.500Z,54.25
2019-02-04T06:54:13.252Z,46.70
2019-02-04T06:58:36.790Z,43.83
2019-02-04T07:03:00.823Z,50.08
2019-02-04T07:07:24.755Z,50.03
2019-02-04T07:11:49.152Z,43.87
2019-02-04T07:16:12.942Z,43.13
2019-02-04T07:20:36.507Z,46.15
2019-02-04T07:25:00.525Z,41.25
2019-02-04T07:29:24.128Z,44.45
2019-02-04T07:33:48.255Z,45.60
2019-02-04T07:38:11.972Z,35.78
2019-02-04T07:42:35.603Z,39.45
2019-02-04T07:46:59.399Z,41.63
2019-02-04T07:51:23.392Z,46.63
2019-02-04T07:55:46.968Z,44.18
2019-02-04T08:00:14.222Z,40.55
2019-02-04T08:04:38.347Z,42.43
2019-02-04T08:09:02.227Z,32.15
2019-02-04T08:13:27.453Z,37.55
2019-02-04T08:17:52.088Z,35.60
2019-02-04T08:22:16.000Z,31.05
2019-02-04T08:26:39.850Z,42.25
2019-02-04T08:31:03.695Z,41.08
2019-02-04T08:35:27.616Z,41.02
2019-02-04T08:39:51.955Z,37.17
2019-02-04T08:44:15.758Z,40.83
2019-02-04T08:48:39.309Z,34.00
2019-02-04T08:53:03.021Z,33.53
2019-02-04T08:57:27.314Z,39.60
2019-02-04T09:01:51.325Z,28.85
2019-02-04T09:06:14.964Z,28.17
2019-02-04T09:10:38.828Z,29.63
2019-02-04T09:15:03.040Z,30.77
2019-02-04T09:19:28.388Z,27.87
2019-02-04T09:23:52.402Z,28.32
2019-02-04T09:28:16.339Z,32.50
2019-02-04T09:32:40.091Z,28.57
2019-02-04T09:37:03.810Z,28.70
2019-02-04T09:41:27.520Z,31.75
2019-02-04T09:45:51.383Z,32.13
2019-02-04T09:50:25.248Z,30.17
2019-02-04T09:54:48.767Z,22.90
2019-02-04T09:59:12.544Z,20.75
2019-02-04T10:03:36.205Z,23.50
2019-02-04T10:08:00.175Z,19.87
2019-02-04T10:12:23.857Z,24.77
2019-02-04T10:16:48.049Z,28.77
2019-02-04T10:21:12.182Z,28.45
2019-02-04T10:25:43.457Z,21.97
2019-02-04T10:30:12.947Z,23.07
2019-02-04T10:34:37.734Z,23.32
2019-02-04T10:39:01.774Z,20.80
2019-02-04T10:46:36.505Z,17.75
2019-02-04T10:54:34.355Z,24.85
2019-02-04T10:58:58.920Z,17.25
2019-02-04T11:03:23.315Z,18.12
2019-02-04T11:07:47.621Z,18.40
2019-02-04T11:12:11.929Z,16.82
2019-02-04T11:16:36.137Z,15.38
2019-02-04T11:21:00.338Z,16.52
2019-02-04T11:25:24.713Z,17.95
2019-02-04T11:29:49.054Z,15.70
2019-02-04T11:34:14.634Z,17.10
2019-02-04T11:38:39.269Z,12.25
2019-02-04T11:43:03.473Z,11.55
2019-02-04T11:47:28.080Z,12.07
2019-02-04T11:51:52.609Z,15.05
2019-02-04T11:56:16.981Z,13.50
2019-02-04T12:00:42.163Z,11.93
2019-02-04T12:05:10.150Z,7.97
2019-02-04T12:09:34.518Z,12.47
2019-02-04T12:13:59.423Z,10.58
2019-02-04T12:18:24.224Z,11.43
2019-02-04T12:22:49.440Z,11.73
2019-02-04T12:27:14.139Z,9.85
2019-02-04T12:31:40.076Z,9.58
2019-02-04T12:36:04.857Z,7.15
2019-02-04T12:40:29.451Z,7.90
2019-02-04T12:44:54.351Z,7.85
2019-02-04T12:49:20.009Z,7.80
2019-02-04T12:53:44.472Z,7.15
2019-02-04T12:58:08.897Z,4.53
2019-02-04T13:02:33.356Z,6.05
2019-02-04T13:06:58.047Z,8.18
2019-02-04T13:11:22.462Z,4.72
2019-02-04T13:15:47.283Z,7.42
2019-02-04T13:20:14.366Z,6.08
2019-02-04T13:24:39.030Z,8.60
2019-02-04T13:29:03.578Z,4.45
2019-02-04T13:33:27.652Z,4.85
2019-02-04T13:37:52.237Z,4.08
2019-02-04T13:42:16.715Z,8.98
2019-02-04T13:46:41.605Z,4.78
2019-02-04T13:51:06.184Z,7.03
2019-02-04T13:55:32.809Z,5.55
2019-02-04T13:59:57.479Z,6.60
2019-02-04T14:04:21.985Z,6.60
2019-02-04T14:08:46.507Z,6.45
2019-02-04T14:13:10.823Z,5.00
2019-02-04T14:17:35.592Z,5.37
2019-02-04T14:22:08.891Z,6.97
2019-02-04T14:26:28.751Z,7.08
2019-02-04T14:30:53.532Z,13.30
2019-02-04T14:35:19.463Z,8.45
2019-02-04T14:39:45.910Z,6.55
2019-02-04T14:44:12.796Z,7.95
2019-02-04T14:48:46.681Z,10.70
2019-02-04T14:53:26.475Z,8.63
2019-02-04T14:58:06.707Z,10.95
2019-02-04T15:02:38.171Z,10.50
2019-02-04T15:07:15.059Z,6.12
2019-02-04T15:11:50.516Z,7.15
2019-02-04T15:16:36.396Z,5.85
2019-02-04T15:21:07.077Z,6.10
2019-02-04T15:25:55.489Z,5.92
2019-02-04T15:30:43.163Z,7.70
2019-02-04T15:35:26.605Z,6.75
2019-02-04T15:40:14.249Z,7.67
2019-02-04T15:45:06.193Z,8.13
2019-02-04T15:49:50.153Z,8.78
2019-02-04T15:54:05.838Z,8.28
2019-02-04T15:58:30.992Z,6.05
2019-02-04T16:02:57.343Z,9.80
2019-02-04T16:07:24.012Z,10.40
2019-02-04T16:11:49.160Z,7.83
2019-02-04T16:16:14.174Z,10.93
2019-02-04T16:20:38.879Z,9.80
2019-02-04T16:25:03.375Z,10.75
2019-02-04T16:29:27.975Z,10.43
2019-02-04T16:33:53.190Z,12.68
2019-02-04T16:38:18.304Z,13.05
2019-02-04T16:42:43.097Z,10.50
2019-02-04T16:47:08.223Z,16.40
2019-02-04T16:51:33.038Z,13.28
2019-02-04T16:55:57.840Z,17.05
2019-02-04T17:00:27.794Z,20.30
2019-02-04T17:04:54.311Z,16.52
2019-02-04T17:09:19.218Z,16.73
2019-02-04T17:13:44.979Z,21.62
2019-02-04T17:18:09.427Z,18.57
2019-02-04T17:22:34.152Z,17.85
2019-02-04T17:27:00.187Z,21.45
2019-02-04T17:31:25.606Z,22.70
2019-02-04T17:35:50.616Z,23.65
2019-02-04T17:40:20.449Z,24.98
2019-02-04T17:44:44.980Z,27.17
2019-02-04T17:49:11.702Z,26.12
2019-02-04T17:53:36.704Z,27.52
2019-02-04T17:58:01.333Z,32.05
2019-02-04T18:02:30.619Z,26.70
2019-02-04T18:06:55.423Z,30.15
2019-02-04T18:11:20.639Z,32.75
2019-02-04T18:15:46.572Z,27.73
2019-02-04T18:20:12.813Z,30.17
2019-02-04T18:24:37.415Z,33.25
2019-02-04T18:29:04.814Z,25.12
2019-02-04T18:33:29.740Z,31.23
2019-02-04T18:37:54.904Z,27.55
2019-02-04T18:42:20.463Z,28.32
2019-02-04T18:46:45.542Z,29.37
2019-02-04T18:51:10.655Z,31.85
2019-02-04T18:55:35.642Z,34.18
2019-02-04T19:00:00.512Z,31.25
2019-02-04T19:04:27.844Z,29.52
2019-02-04T19:08:55.415Z,36.68
2019-02-04T19:13:20.114Z,29.48
2019-02-04T19:17:45.125Z,34.85
2019-02-04T19:22:10.550Z,35.45
2019-02-04T19:26:36.136Z,29.50
2019-02-04T19:31:09.538Z,30.30
2019-02-04T19:35:35.028Z,27.67
2019-02-04T19:39:59.659Z,29.20
2019-02-04T19:44:24.413Z,29.75
2019-02-04T19:48:49.765Z,32.88
2019-02-04T19:53:15.354Z,29.32
2019-02-04T19:57:40.094Z,30.02
2019-02-04T20:02:05.072Z,34.35
2019-02-04T20:06:30.080Z,32.90
2019-02-04T20:10:55.908Z,27.37
2019-02-04T20:15:32.190Z,30.40
2019-02-04T20:19:58.529Z,29.15
2019-02-04T20:24:32.875Z,29.48
2019-02-04T20:28:50.903Z,31.35
2019-02-04T20:33:19.348Z,26.95
2019-02-04T20:37:45.430Z,29.12
2019-02-04T20:42:10.340Z,29.48
2019-02-04T20:46:36.584Z,31.17
2019-02-04T20:51:01.256Z,33.15
2019-02-04T20:55:27.872Z,25.32
2019-02-04T20:59:54.792Z,32.55
2019-02-04T21:04:19.500Z,29.40
2019-02-04T21:08:44.195Z,26.25
2019-02-04T21:13:09.215Z,28.83
2019-02-04T21:17:34.740Z,29.87
2019-02-04T21:21:59.437Z,31.05
2019-02-04T21:26:24.389Z,31.05
2019-02-04T21:30:49.461Z,28.70
2019-02-04T21:35:14.371Z,29.40
2019-02-04T21:39:43.883Z,28.40
2019-02-04T21:44:08.796Z,29.42
2019-02-04T21:48:35.593Z,28.85
2019-02-04T21:53:01.814Z,29.63
2019-02-04T21:57:28.732Z,25.35
2019-02-04T22:01:53.549Z,29.82
2019-02-04T22:06:18.153Z,25.90
2019-02-04T22:10:42.751Z,25.92
2019-02-04T22:15:09.399Z,29.37
2019-02-04T22:19:34.311Z,26.70
2019-02-04T22:23:59.422Z,24.60
2019-02-04T22:28:24.535Z,24.07
2019-02-04T22:32:49.648Z,26.97
2019-02-04T22:37:15.686Z,23.12
2019-02-04T22:41:40.286Z,22.37
2019-02-04T22:46:04.889Z,24.18
2019-02-04T22:50:30.926Z,21.68
2019-02-04T22:54:55.634Z,24.75
2019-02-04T22:59:19.913Z,20.30
2019-02-04T23:03:44.451Z,22.70
2019-02-04T23:08:08.785Z,19.85
2019-02-04T23:12:33.097Z,23.18
2019-02-04T23:16:57.838Z,19.15
2019-02-04T23:21:22.415Z,22.27
2019-02-04T23:25:47.270Z,23.70
2019-02-04T23:30:15.129Z,19.37
2019-02-04T23:34:39.620Z,20.25
2019-02-04T23:39:05.645Z,24.43
2019-02-04T23:43:31.305Z,17.85
2019-02-04T23:47:55.680Z,15.88
2019-02-04T23:52:19.908Z,21.68
2019-02-04T23:56:44.068Z,17.60
